sensor_id;sensor_type;location;lat;lon;timestamp;P1;durP1;ratioP1;P2;durP2;ratioP2
65936;SDS011;52707;52.086;5.418;2023-09-18T00:02:09;19.65;;;16.67;;
65936;SDS011;52707;52.086;5.418;2023-09-18T00:04:35;22.17;;;19.90;;
65936;SDS011;52707;52.086;5.418;2023-09-18T00:07:02;23.50;;;20.17;;
65936;SDS011;52707;52.086;5.418;2023-09-18T00:09:28;20.15;;;15.77;;
65936;SDS011;52707;52.086;5.418;2023-09-18T00:11:55;22.05;;;14.70;;
65936;SDS011;52707;52.086;5.418;2023-09-18T00:14:21;21.77;;;15.50;;
65936;SDS011;52707;52.086;5.418;2023-09-18T00:16:47;20.95;;;15.57;;
65936;SDS011;52707;52.086;5.418;2023-09-18T00:19:24;21.92;;;14.93;;
65936;SDS011;52707;52.086;5.418;2023-09-18T00:21:50;27.70;;;14.35;;
65936;SDS011;52707;52.086;5.418;2023-09-18T00:24:19;24.60;;;18.92;;
65936;SDS011;52707;52.086;5.418;2023-09-18T00:26:46;15.70;;;12.10;;
65936;SDS011;52707;52.086;5.418;2023-09-18T00:29:13;15.45;;;14.00;;
65936;SDS011;52707;52.086;5.418;2023-09-18T00:31:39;18.80;;;13.45;;
65936;SDS011;52707;52.086;5.418;2023-09-18T00:34:06;23.02;;;17.55;;
65936;SDS011;52707;52.086;5.418;2023-09-18T00:36:32;18.00;;;15.30;;
65936;SDS011;52707;52.086;5.418;2023-09-18T00:38:59;21.90;;;15.45;;
65936;SDS011;52707;52.086;5.418;2023-09-18T00:41:25;26.75;;;14.00;;
65936;SDS011;52707;52.086;5.418;2023-09-18T00:43:52;16.13;;;12.75;;
65936;SDS011;52707;52.086;5.418;2023-09-18T00:46:18;18.35;;;14.60;;
65936;SDS011;52707;52.086;5.418;2023-09-18T00:48:45;21.02;;;14.13;;
65936;SDS011;52707;52.086;5.418;2023-09-18T00:51:13;16.45;;;14.75;;
65936;SDS011;52707;52.086;5.418;2023-09-18T00:53:41;21.23;;;12.45;;
65936;SDS011;52707;52.086;5.418;2023-09-18T00:56:09;18.77;;;15.77;;
65936;SDS011;52707;52.086;5.418;2023-09-18T00:58:36;19.33;;;14.00;;
65936;SDS011;52707;52.086;5.418;2023-09-18T01:01:03;23.02;;;16.13;;
65936;SDS011;52707;52.086;5.418;2023-09-18T01:03:30;15.82;;;13.30;;
65936;SDS011;52707;52.086;5.418;2023-09-18T01:05:57;22.20;;;14.77;;
65936;SDS011;52707;52.086;5.418;2023-09-18T01:08:23;23.50;;;13.25;;
65936;SDS011;52707;52.086;5.418;2023-09-18T01:13:19;20.17;;;16.95;;
65936;SDS011;52707;52.086;5.418;2023-09-18T01:18:14;17.90;;;16.13;;
65936;SDS011;52707;52.086;5.418;2023-09-18T01:20:40;19.10;;;15.95;;
65936;SDS011;52707;52.086;5.418;2023-09-18T01:23:07;26.02;;;15.82;;
65936;SDS011;52707;52.086;5.418;2023-09-18T01:25:34;17.67;;;15.95;;
65936;SDS011;52707;52.086;5.418;2023-09-18T01:28:00;16.92;;;14.75;;
65936;SDS011;52707;52.086;5.418;2023-09-18T01:30:27;21.15;;;15.55;;
65936;SDS011;52707;52.086;5.418;2023-09-18T01:32:54;16.70;;;13.27;;
65936;SDS011;52707;52.086;5.418;2023-09-18T01:35:20;18.30;;;14.05;;
65936;SDS011;52707;52.086;5.418;2023-09-18T01:37:49;21.15;;;15.88;;
65936;SDS011;52707;52.086;5.418;2023-09-18T01:40:16;15.02;;;13.68;;
65936;SDS011;52707;52.086;5.418;2023-09-18T01:42:43;22.40;;;15.60;;
65936;SDS011;52707;52.086;5.418;2023-09-18T01:45:09;28.85;;;17.38;;
65936;SDS011;52707;52.086;5.418;2023-09-18T01:47:36;21.67;;;14.98;;
65936;SDS011;52707;52.086;5.418;2023-09-18T01:50:03;21.25;;;14.55;;
65936;SDS011;52707;52.086;5.418;2023-09-18T01:52:31;19.65;;;16.58;;
65936;SDS011;52707;52.086;5.418;2023-09-18T01:54:58;24.85;;;22.55;;
65936;SDS011;52707;52.086;5.418;2023-09-18T01:57:24;18.60;;;15.40;;
65936;SDS011;52707;52.086;5.418;2023-09-18T01:59:51;22.92;;;20.45;;
65936;SDS011;52707;52.086;5.418;2023-09-18T02:02:18;20.30;;;16.90;;
65936;SDS011;52707;52.086;5.418;2023-09-18T02:05:02;22.50;;;20.25;;
65936;SDS011;52707;52.086;5.418;2023-09-18T02:07:34;23.75;;;21.45;;
65936;SDS011;52707;52.086;5.418;2023-09-18T02:10:01;21.63;;;17.55;;
65936;SDS011;52707;52.086;5.418;2023-09-18T02:12:29;22.75;;;18.20;;
65936;SDS011;52707;52.086;5.418;2023-09-18T02:14:55;25.65;;;23.08;;
65936;SDS011;52707;52.086;5.418;2023-09-18T02:17:24;24.73;;;22.40;;
65936;SDS011;52707;52.086;5.418;2023-09-18T02:19:51;34.70;;;31.50;;
65936;SDS011;52707;52.086;5.418;2023-09-18T02:22:17;30.02;;;27.20;;
65936;SDS011;52707;52.086;5.418;2023-09-18T02:24:44;34.55;;;31.45;;
65936;SDS011;52707;52.086;5.418;2023-09-18T02:27:10;38.60;;;34.45;;
65936;SDS011;52707;52.086;5.418;2023-09-18T02:29:38;38.97;;;34.88;;
65936;SDS011;52707;52.086;5.418;2023-09-18T02:32:04;50.55;;;45.75;;
65936;SDS011;52707;52.086;5.418;2023-09-18T02:34:31;53.60;;;46.63;;
65936;SDS011;52707;52.086;5.418;2023-09-18T02:36:57;53.83;;;48.58;;
65936;SDS011;52707;52.086;5.418;2023-09-18T02:39:23;47.60;;;42.83;;
65936;SDS011;52707;52.086;5.418;2023-09-18T02:41:50;63.75;;;57.80;;
65936;SDS011;52707;52.086;5.418;2023-09-18T02:44:16;57.25;;;51.22;;
65936;SDS011;52707;52.086;5.418;2023-09-18T02:46:43;66.45;;;60.33;;
65936;SDS011;52707;52.086;5.418;2023-09-18T02:49:09;57.55;;;52.60;;
65936;SDS011;52707;52.086;5.418;2023-09-18T02:51:37;46.22;;;41.63;;
65936;SDS011;52707;52.086;5.418;2023-09-18T02:54:04;46.78;;;41.78;;
65936;SDS011;52707;52.086;5.418;2023-09-18T02:56:30;55.03;;;50.03;;
65936;SDS011;52707;52.086;5.418;2023-09-18T02:58:57;60.00;;;54.17;;
65936;SDS011;52707;52.086;5.418;2023-09-18T03:01:24;44.30;;;40.08;;
65936;SDS011;52707;52.086;5.418;2023-09-18T03:03:50;54.95;;;49.72;;
65936;SDS011;52707;52.086;5.418;2023-09-18T03:06:17;50.65;;;45.90;;
65936;SDS011;52707;52.086;5.418;2023-09-18T03:08:43;46.40;;;42.08;;
65936;SDS011;52707;52.086;5.418;2023-09-18T03:11:13;51.00;;;46.10;;
65936;SDS011;52707;52.086;5.418;2023-09-18T03:13:46;50.95;;;46.10;;
65936;SDS011;52707;52.086;5.418;2023-09-18T03:16:13;52.90;;;46.30;;
65936;SDS011;52707;52.086;5.418;2023-09-18T03:18:39;41.47;;;36.92;;
65936;SDS011;52707;52.086;5.418;2023-09-18T03:21:06;40.70;;;36.58;;
65936;SDS011;52707;52.086;5.418;2023-09-18T03:23:32;33.38;;;30.40;;
65936;SDS011;52707;52.086;5.418;2023-09-18T03:25:58;31.20;;;25.45;;
65936;SDS011;52707;52.086;5.418;2023-09-18T03:28:26;31.02;;;27.52;;
65936;SDS011;52707;52.086;5.418;2023-09-18T03:30:52;32.28;;;28.98;;
65936;SDS011;52707;52.086;5.418;2023-09-18T03:33:18;31.80;;;28.52;;
65936;SDS011;52707;52.086;5.418;2023-09-18T03:35:46;30.83;;;27.88;;
65936;SDS011;52707;52.086;5.418;2023-09-18T03:38:13;29.98;;;26.88;;
65936;SDS011;52707;52.086;5.418;2023-09-18T03:40:40;26.77;;;24.17;;
65936;SDS011;52707;52.086;5.418;2023-09-18T03:43:09;31.75;;;28.55;;
65936;SDS011;52707;52.086;5.418;2023-09-18T03:45:36;27.42;;;24.42;;
65936;SDS011;52707;52.086;5.418;2023-09-18T03:48:02;31.02;;;27.75;;
65936;SDS011;52707;52.086;5.418;2023-09-18T03:50:29;33.25;;;30.23;;
65936;SDS011;52707;52.086;5.418;2023-09-18T03:52:55;39.58;;;35.60;;
65936;SDS011;52707;52.086;5.418;2023-09-18T03:55:22;39.65;;;35.70;;
65936;SDS011;52707;52.086;5.418;2023-09-18T03:57:48;45.28;;;40.63;;
65936;SDS011;52707;52.086;5.418;2023-09-18T04:00:15;45.65;;;41.00;;
65936;SDS011;52707;52.086;5.418;2023-09-18T04:02:42;54.08;;;47.92;;
65936;SDS011;52707;52.086;5.418;2023-09-18T04:05:09;67.22;;;61.25;;
65936;SDS011;52707;52.086;5.418;2023-09-18T04:07:36;50.75;;;45.80;;
65936;SDS011;52707;52.086;5.418;2023-09-18T04:10:02;50.47;;;45.47;;
65936;SDS011;52707;52.086;5.418;2023-09-18T04:12:30;50.70;;;45.83;;
65936;SDS011;52707;52.086;5.418;2023-09-18T04:14:56;49.35;;;44.38;;
65936;SDS011;52707;52.086;5.418;2023-09-18T04:17:22;49.40;;;43.00;;
65936;SDS011;52707;52.086;5.418;2023-09-18T04:19:49;24.13;;;15.18;;
65936;SDS011;52707;52.086;5.418;2023-09-18T04:22:15;23.00;;;14.80;;
65936;SDS011;52707;52.086;5.418;2023-09-18T04:24:42;24.15;;;15.32;;
65936;SDS011;52707;52.086;5.418;2023-09-18T04:27:08;25.70;;;14.95;;
65936;SDS011;52707;52.086;5.418;2023-09-18T04:29:35;24.63;;;14.45;;
65936;SDS011;52707;52.086;5.418;2023-09-18T04:32:02;25.58;;;14.63;;
65936;SDS011;52707;52.086;5.418;2023-09-18T04:34:30;24.83;;;14.27;;
65936;SDS011;52707;52.086;5.418;2023-09-18T04:36:57;25.88;;;14.45;;
65936;SDS011;52707;52.086;5.418;2023-09-18T04:39:23;29.77;;;14.77;;
65936;SDS011;52707;52.086;5.418;2023-09-18T04:41:50;24.02;;;14.48;;
65936;SDS011;52707;52.086;5.418;2023-09-18T04:44:16;23.85;;;14.68;;
65936;SDS011;52707;52.086;5.418;2023-09-18T04:46:43;19.30;;;14.52;;
65936;SDS011;52707;52.086;5.418;2023-09-18T04:49:10;22.63;;;15.13;;
65936;SDS011;52707;52.086;5.418;2023-09-18T04:51:37;25.02;;;13.90;;
65936;SDS011;52707;52.086;5.418;2023-09-18T04:54:05;35.50;;;15.57;;
65936;SDS011;52707;52.086;5.418;2023-09-18T04:56:31;51.95;;;18.08;;
65936;SDS011;52707;52.086;5.418;2023-09-18T04:58:58;55.53;;;20.55;;
65936;SDS011;52707;52.086;5.418;2023-09-18T05:01:24;32.08;;;16.50;;
65936;SDS011;52707;52.086;5.418;2023-09-18T05:03:51;37.60;;;17.67;;
65936;SDS011;52707;52.086;5.418;2023-09-18T05:06:18;27.65;;;13.80;;
65936;SDS011;52707;52.086;5.418;2023-09-18T05:08:45;18.67;;;10.35;;
65936;SDS011;52707;52.086;5.418;2023-09-18T05:11:12;12.52;;;7.22;;
65936;SDS011;52707;52.086;5.418;2023-09-18T05:13:40;12.15;;;6.38;;
65936;SDS011;52707;52.086;5.418;2023-09-18T05:16:06;10.38;;;7.32;;
65936;SDS011;52707;52.086;5.418;2023-09-18T05:18:33;13.80;;;7.32;;
65936;SDS011;52707;52.086;5.418;2023-09-18T05:20:59;9.82;;;7.47;;
65936;SDS011;52707;52.086;5.418;2023-09-18T05:23:28;14.57;;;8.55;;
65936;SDS011;52707;52.086;5.418;2023-09-18T05:25:55;17.50;;;8.60;;
65936;SDS011;52707;52.086;5.418;2023-09-18T05:28:21;13.00;;;8.32;;
65936;SDS011;52707;52.086;5.418;2023-09-18T05:30:47;23.90;;;8.30;;
65936;SDS011;52707;52.086;5.418;2023-09-18T05:33:14;14.98;;;9.68;;
65936;SDS011;52707;52.086;5.418;2023-09-18T05:35:41;15.38;;;9.65;;
65936;SDS011;52707;52.086;5.418;2023-09-18T05:38:09;24.05;;;10.85;;
65936;SDS011;52707;52.086;5.418;2023-09-18T05:40:40;21.23;;;11.82;;
65936;SDS011;52707;52.086;5.418;2023-09-18T05:43:07;13.68;;;9.75;;
65936;SDS011;52707;52.086;5.418;2023-09-18T05:45:34;16.15;;;10.23;;
65936;SDS011;52707;52.086;5.418;2023-09-18T05:48:00;16.88;;;10.07;;
65936;SDS011;52707;52.086;5.418;2023-09-18T05:50:31;16.75;;;11.70;;
65936;SDS011;52707;52.086;5.418;2023-09-18T05:52:58;21.20;;;11.13;;
65936;SDS011;52707;52.086;5.418;2023-09-18T05:55:32;17.08;;;10.52;;
65936;SDS011;52707;52.086;5.418;2023-09-18T05:57:59;21.15;;;11.60;;
65936;SDS011;52707;52.086;5.418;2023-09-18T06:00:29;16.63;;;10.38;;
65936;SDS011;52707;52.086;5.418;2023-09-18T06:02:57;17.35;;;10.27;;
65936;SDS011;52707;52.086;5.418;2023-09-18T06:05:24;19.08;;;10.25;;
65936;SDS011;52707;52.086;5.418;2023-09-18T06:07:51;16.13;;;10.48;;
65936;SDS011;52707;52.086;5.418;2023-09-18T06:10:17;15.65;;;10.35;;
65936;SDS011;52707;52.086;5.418;2023-09-18T06:12:44;15.48;;;10.07;;
65936;SDS011;52707;52.086;5.418;2023-09-18T06:15:11;16.33;;;9.93;;
65936;SDS011;52707;52.086;5.418;2023-09-18T06:17:38;18.20;;;10.65;;
65936;SDS011;52707;52.086;5.418;2023-09-18T06:20:07;19.48;;;10.38;;
65936;SDS011;52707;52.086;5.418;2023-09-18T06:22:37;20.45;;;10.18;;
65936;SDS011;52707;52.086;5.418;2023-09-18T06:25:05;18.67;;;11.13;;
65936;SDS011;52707;52.086;5.418;2023-09-18T06:27:34;19.02;;;11.15;;
65936;SDS011;52707;52.086;5.418;2023-09-18T06:30:00;18.10;;;10.88;;
65936;SDS011;52707;52.086;5.418;2023-09-18T06:32:27;18.33;;;11.23;;
65936;SDS011;52707;52.086;5.418;2023-09-18T06:34:53;20.92;;;11.50;;
65936;SDS011;52707;52.086;5.418;2023-09-18T06:37:20;20.70;;;10.85;;
65936;SDS011;52707;52.086;5.418;2023-09-18T06:39:47;16.98;;;10.73;;
65936;SDS011;52707;52.086;5.418;2023-09-18T06:42:13;18.50;;;10.73;;
65936;SDS011;52707;52.086;5.418;2023-09-18T06:44:39;22.85;;;11.30;;
65936;SDS011;52707;52.086;5.418;2023-09-18T06:47:06;17.23;;;10.50;;
65936;SDS011;52707;52.086;5.418;2023-09-18T06:49:32;19.80;;;10.82;;
65936;SDS011;52707;52.086;5.418;2023-09-18T06:51:59;21.55;;;10.85;;
65936;SDS011;52707;52.086;5.418;2023-09-18T06:54:25;19.50;;;10.57;;
65936;SDS011;52707;52.086;5.418;2023-09-18T06:56:52;20.70;;;10.38;;
65936;SDS011;52707;52.086;5.418;2023-09-18T06:59:18;19.50;;;10.68;;
65936;SDS011;52707;52.086;5.418;2023-09-18T07:01:45;19.17;;;10.07;;
65936;SDS011;52707;52.086;5.418;2023-09-18T07:04:12;14.02;;;9.90;;
65936;SDS011;52707;52.086;5.418;2023-09-18T07:06:39;20.02;;;10.40;;
65936;SDS011;52707;52.086;5.418;2023-09-18T07:09:05;15.80;;;10.25;;
65936;SDS011;52707;52.086;5.418;2023-09-18T07:11:33;16.23;;;9.85;;
65936;SDS011;52707;52.086;5.418;2023-09-18T07:14:00;14.07;;;9.35;;
65936;SDS011;52707;52.086;5.418;2023-09-18T07:16:32;17.27;;;9.60;;
65936;SDS011;52707;52.086;5.418;2023-09-18T07:19:00;24.10;;;10.30;;
65936;SDS011;52707;52.086;5.418;2023-09-18T07:21:27;18.52;;;10.05;;
65936;SDS011;52707;52.086;5.418;2023-09-18T07:23:55;19.80;;;8.55;;
65936;SDS011;52707;52.086;5.418;2023-09-18T07:26:22;16.42;;;9.35;;
65936;SDS011;52707;52.086;5.418;2023-09-18T07:28:48;14.63;;;9.25;;
65936;SDS011;52707;52.086;5.418;2023-09-18T07:31:14;12.85;;;8.70;;
65936;SDS011;52707;52.086;5.418;2023-09-18T07:33:41;12.38;;;7.85;;
65936;SDS011;52707;52.086;5.418;2023-09-18T07:36:08;12.88;;;8.00;;
65936;SDS011;52707;52.086;5.418;2023-09-18T07:38:36;12.55;;;7.97;;
65936;SDS011;52707;52.086;5.418;2023-09-18T07:41:04;10.15;;;7.03;;
65936;SDS011;52707;52.086;5.418;2023-09-18T07:43:30;11.15;;;7.18;;
65936;SDS011;52707;52.086;5.418;2023-09-18T07:45:57;12.02;;;7.45;;
65936;SDS011;52707;52.086;5.418;2023-09-18T07:48:24;13.15;;;6.95;;
65936;SDS011;52707;52.086;5.418;2023-09-18T07:50:51;14.10;;;6.63;;
65936;SDS011;52707;52.086;5.418;2023-09-18T07:53:18;11.35;;;6.50;;
65936;SDS011;52707;52.086;5.418;2023-09-18T07:55:44;11.38;;;6.15;;
65936;SDS011;52707;52.086;5.418;2023-09-18T07:58:10;12.13;;;5.28;;
65936;SDS011;52707;52.086;5.418;2023-09-18T08:00:38;7.53;;;5.20;;
65936;SDS011;52707;52.086;5.418;2023-09-18T08:03:05;7.70;;;5.05;;
65936;SDS011;52707;52.086;5.418;2023-09-18T08:05:32;13.43;;;5.60;;
65936;SDS011;52707;52.086;5.418;2023-09-18T08:07:58;13.73;;;5.35;;
65936;SDS011;52707;52.086;5.418;2023-09-18T08:10:25;7.22;;;4.38;;
65936;SDS011;52707;52.086;5.418;2023-09-18T08:12:52;6.45;;;4.90;;
65936;SDS011;52707;52.086;5.418;2023-09-18T08:15:19;8.05;;;4.88;;
65936;SDS011;52707;52.086;5.418;2023-09-18T08:17:46;7.20;;;4.38;;
65936;SDS011;52707;52.086;5.418;2023-09-18T08:20:15;7.25;;;4.47;;
65936;SDS011;52707;52.086;5.418;2023-09-18T08:22:42;9.73;;;4.00;;
65936;SDS011;52707;52.086;5.418;2023-09-18T08:25:09;5.40;;;3.70;;
65936;SDS011;52707;52.086;5.418;2023-09-18T08:27:37;7.68;;;4.30;;
65936;SDS011;52707;52.086;5.418;2023-09-18T08:30:08;5.35;;;3.75;;
65936;SDS011;52707;52.086;5.418;2023-09-18T08:32:36;6.10;;;3.92;;
65936;SDS011;52707;52.086;5.418;2023-09-18T08:35:03;12.50;;;4.57;;
65936;SDS011;52707;52.086;5.418;2023-09-18T08:37:30;7.25;;;4.50;;
65936;SDS011;52707;52.086;5.418;2023-09-18T08:39:57;7.32;;;4.30;;
65936;SDS011;52707;52.086;5.418;2023-09-18T08:42:23;10.57;;;3.95;;
65936;SDS011;52707;52.086;5.418;2023-09-18T08:44:51;11.00;;;4.15;;
65936;SDS011;52707;52.086;5.418;2023-09-18T08:47:18;7.43;;;3.40;;
65936;SDS011;52707;52.086;5.418;2023-09-18T08:49:46;6.45;;;3.70;;
65936;SDS011;52707;52.086;5.418;2023-09-18T08:52:12;6.22;;;3.92;;
65936;SDS011;52707;52.086;5.418;2023-09-18T08:54:42;8.73;;;3.90;;
65936;SDS011;52707;52.086;5.418;2023-09-18T08:57:08;7.35;;;3.72;;
65936;SDS011;52707;52.086;5.418;2023-09-18T08:59:35;5.80;;;3.70;;
65936;SDS011;52707;52.086;5.418;2023-09-18T09:02:02;10.00;;;3.85;;
65936;SDS011;52707;52.086;5.418;2023-09-18T09:04:29;7.82;;;3.50;;
65936;SDS011;52707;52.086;5.418;2023-09-18T09:06:55;4.22;;;3.60;;
65936;SDS011;52707;52.086;5.418;2023-09-18T09:09:25;4.40;;;3.45;;
65936;SDS011;52707;52.086;5.418;2023-09-18T09:11:57;7.40;;;3.15;;
65936;SDS011;52707;52.086;5.418;2023-09-18T09:14:23;4.57;;;2.97;;
65936;SDS011;52707;52.086;5.418;2023-09-18T09:16:56;4.85;;;3.05;;
65936;SDS011;52707;52.086;5.418;2023-09-18T09:19:30;5.40;;;3.20;;
65936;SDS011;52707;52.086;5.418;2023-09-18T09:21:57;4.53;;;2.83;;
65936;SDS011;52707;52.086;5.418;2023-09-18T09:24:40;2.67;;;2.40;;
65936;SDS011;52707;52.086;5.418;2023-09-18T09:27:07;5.53;;;2.60;;
65936;SDS011;52707;52.086;5.418;2023-09-18T09:29:34;7.57;;;2.83;;
65936;SDS011;52707;52.086;5.418;2023-09-18T09:32:14;6.07;;;2.53;;
65936;SDS011;52707;52.086;5.418;2023-09-18T09:34:41;3.80;;;2.97;;
65936;SDS011;52707;52.086;5.418;2023-09-18T09:37:08;5.05;;;2.40;;
65936;SDS011;52707;52.086;5.418;2023-09-18T09:39:34;7.15;;;2.15;;
65936;SDS011;52707;52.086;5.418;2023-09-18T09:42:01;9.80;;;2.22;;
65936;SDS011;52707;52.086;5.418;2023-09-18T09:44:33;8.95;;;2.45;;
65936;SDS011;52707;52.086;5.418;2023-09-18T09:46:59;6.88;;;2.22;;
65936;SDS011;52707;52.086;5.418;2023-09-18T09:49:26;4.95;;;2.28;;
65936;SDS011;52707;52.086;5.418;2023-09-18T09:51:59;3.53;;;2.28;;
65936;SDS011;52707;52.086;5.418;2023-09-18T09:54:32;2.90;;;2.00;;
65936;SDS011;52707;52.086;5.418;2023-09-18T09:57:04;8.32;;;1.98;;
65936;SDS011;52707;52.086;5.418;2023-09-18T09:59:31;3.90;;;1.88;;
65936;SDS011;52707;52.086;5.418;2023-09-18T10:02:01;4.95;;;2.05;;
65936;SDS011;52707;52.086;5.418;2023-09-18T10:04:29;4.22;;;2.00;;
65936;SDS011;52707;52.086;5.418;2023-09-18T10:06:58;4.85;;;1.80;;
65936;SDS011;52707;52.086;5.418;2023-09-18T10:09:28;4.07;;;2.08;;
65936;SDS011;52707;52.086;5.418;2023-09-18T10:11:56;7.38;;;2.33;;
65936;SDS011;52707;52.086;5.418;2023-09-18T10:14:27;5.47;;;2.40;;
65936;SDS011;52707;52.086;5.418;2023-09-18T10:16:59;5.22;;;2.13;;
65936;SDS011;52707;52.086;5.418;2023-09-18T10:19:32;6.13;;;2.65;;
65936;SDS011;52707;52.086;5.418;2023-09-18T10:22:06;5.53;;;2.47;;
65936;SDS011;52707;52.086;5.418;2023-09-18T10:24:37;3.78;;;2.80;;
65936;SDS011;52707;52.086;5.418;2023-09-18T10:27:05;4.03;;;3.13;;
65936;SDS011;52707;52.086;5.418;2023-09-18T10:29:33;11.55;;;3.03;;
65936;SDS011;52707;52.086;5.418;2023-09-18T10:32:02;4.25;;;3.17;;
65936;SDS011;52707;52.086;5.418;2023-09-18T10:34:28;4.38;;;3.13;;
65936;SDS011;52707;52.086;5.418;2023-09-18T10:36:56;6.05;;;3.50;;
65936;SDS011;52707;52.086;5.418;2023-09-18T10:39:24;13.25;;;3.85;;
65936;SDS011;52707;52.086;5.418;2023-09-18T10:41:53;7.65;;;3.40;;
65936;SDS011;52707;52.086;5.418;2023-09-18T10:44:19;18.15;;;4.68;;
65936;SDS011;52707;52.086;5.418;2023-09-18T10:46:46;9.23;;;3.40;;
65936;SDS011;52707;52.086;5.418;2023-09-18T10:49:13;7.65;;;3.55;;
65936;SDS011;52707;52.086;5.418;2023-09-18T10:51:40;6.50;;;3.17;;
65936;SDS011;52707;52.086;5.418;2023-09-18T10:54:09;6.93;;;3.38;;
65936;SDS011;52707;52.086;5.418;2023-09-18T10:56:40;10.48;;;3.85;;
65936;SDS011;52707;52.086;5.418;2023-09-18T10:59:06;9.20;;;3.50;;
65936;SDS011;52707;52.086;5.418;2023-09-18T11:01:36;11.52;;;4.10;;
65936;SDS011;52707;52.086;5.418;2023-09-18T11:04:04;7.30;;;4.00;;
65936;SDS011;52707;52.086;5.418;2023-09-18T11:09:25;10.05;;;4.03;;
65936;SDS011;52707;52.086;5.418;2023-09-18T11:11:53;4.65;;;3.53;;
65936;SDS011;52707;52.086;5.418;2023-09-18T11:14:23;13.60;;;4.10;;
65936;SDS011;52707;52.086;5.418;2023-09-18T11:16:50;6.78;;;3.55;;
65936;SDS011;52707;52.086;5.418;2023-09-18T11:19:16;6.95;;;3.53;;
65936;SDS011;52707;52.086;5.418;2023-09-18T11:21:43;5.85;;;3.40;;
65936;SDS011;52707;52.086;5.418;2023-09-18T11:24:15;5.35;;;3.42;;
65936;SDS011;52707;52.086;5.418;2023-09-18T11:26:45;5.90;;;3.30;;
65936;SDS011;52707;52.086;5.418;2023-09-18T11:29:13;3.70;;;2.80;;
65936;SDS011;52707;52.086;5.418;2023-09-18T11:34:13;6.15;;;2.55;;
65936;SDS011;52707;52.086;5.418;2023-09-18T11:36:39;5.45;;;3.28;;
65936;SDS011;52707;52.086;5.418;2023-09-18T11:39:06;9.68;;;3.30;;
65936;SDS011;52707;52.086;5.418;2023-09-18T11:41:33;8.00;;;4.10;;
65936;SDS011;52707;52.086;5.418;2023-09-18T11:46:37;7.63;;;4.10;;
65936;SDS011;52707;52.086;5.418;2023-09-18T11:49:08;7.23;;;4.00;;
65936;SDS011;52707;52.086;5.418;2023-09-18T11:51:36;7.60;;;3.63;;
65936;SDS011;52707;52.086;5.418;2023-09-18T11:54:03;6.72;;;3.25;;
65936;SDS011;52707;52.086;5.418;2023-09-18T11:56:34;11.00;;;3.28;;
65936;SDS011;52707;52.086;5.418;2023-09-18T11:59:00;8.43;;;3.20;;
65936;SDS011;52707;52.086;5.418;2023-09-18T12:01:31;9.38;;;3.92;;
65936;SDS011;52707;52.086;5.418;2023-09-18T12:04:02;8.52;;;3.17;;
65936;SDS011;52707;52.086;5.418;2023-09-18T12:06:34;10.68;;;3.25;;
65936;SDS011;52707;52.086;5.418;2023-09-18T12:09:01;17.23;;;3.85;;
65936;SDS011;52707;52.086;5.418;2023-09-18T12:11:28;8.98;;;2.58;;
65936;SDS011;52707;52.086;5.418;2023-09-18T12:13:54;6.05;;;2.72;;
65936;SDS011;52707;52.086;5.418;2023-09-18T12:16:21;11.35;;;2.63;;
65936;SDS011;52707;52.086;5.418;2023-09-18T12:18:47;9.38;;;2.78;;
65936;SDS011;52707;52.086;5.418;2023-09-18T12:21:15;4.97;;;2.70;;
65936;SDS011;52707;52.086;5.418;2023-09-18T12:23:44;7.30;;;2.97;;
65936;SDS011;52707;52.086;5.418;2023-09-18T12:26:11;5.80;;;2.70;;
65936;SDS011;52707;52.086;5.418;2023-09-18T12:28:40;7.43;;;3.40;;
65936;SDS011;52707;52.086;5.418;2023-09-18T12:31:10;5.60;;;3.08;;
65936;SDS011;52707;52.086;5.418;2023-09-18T12:33:36;7.47;;;3.25;;
65936;SDS011;52707;52.086;5.418;2023-09-18T12:36:04;6.25;;;2.63;;
65936;SDS011;52707;52.086;5.418;2023-09-18T12:38:31;3.83;;;2.00;;
65936;SDS011;52707;52.086;5.418;2023-09-18T12:40:58;6.78;;;2.90;;
65936;SDS011;52707;52.086;5.418;2023-09-18T12:43:35;4.10;;;2.40;;
65936;SDS011;52707;52.086;5.418;2023-09-18T12:46:02;6.25;;;2.50;;
65936;SDS011;52707;52.086;5.418;2023-09-18T12:48:30;5.57;;;2.45;;
65936;SDS011;52707;52.086;5.418;2023-09-18T12:51:04;4.57;;;2.28;;
65936;SDS011;52707;52.086;5.418;2023-09-18T12:53:30;7.22;;;2.50;;
65936;SDS011;52707;52.086;5.418;2023-09-18T12:56:04;3.33;;;2.17;;
65936;SDS011;52707;52.086;5.418;2023-09-18T12:58:31;11.20;;;2.72;;
65936;SDS011;52707;52.086;5.418;2023-09-18T13:00:58;10.25;;;4.13;;
65936;SDS011;52707;52.086;5.418;2023-09-18T13:03:31;61.67;;;45.53;;
65936;SDS011;52707;52.086;5.418;2023-09-18T13:08:54;100.13;;;89.20;;
65936;SDS011;52707;52.086;5.418;2023-09-18T13:11:20;250.95;;;211.30;;
65936;SDS011;52707;52.086;5.418;2023-09-18T13:13:47;331.13;;;294.98;;
65936;SDS011;52707;52.086;5.418;2023-09-18T13:16:23;167.68;;;144.77;;
65936;SDS011;52707;52.086;5.418;2023-09-18T13:18:49;267.42;;;234.48;;
65936;SDS011;52707;52.086;5.418;2023-09-18T13:21:16;369.75;;;314.13;;
65936;SDS011;52707;52.086;5.418;2023-09-18T13:23:42;194.88;;;161.73;;
65936;SDS011;52707;52.086;5.418;2023-09-18T13:26:09;169.85;;;142.85;;
65936;SDS011;52707;52.086;5.418;2023-09-18T13:28:35;186.10;;;152.10;;
65936;SDS011;52707;52.086;5.418;2023-09-18T13:31:03;151.68;;;134.65;;
65936;SDS011;52707;52.086;5.418;2023-09-18T13:33:31;136.43;;;119.32;;
65936;SDS011;52707;52.086;5.418;2023-09-18T13:36:01;193.93;;;173.30;;
65936;SDS011;52707;52.086;5.418;2023-09-18T13:38:27;167.52;;;150.55;;
65936;SDS011;52707;52.086;5.418;2023-09-18T13:40:54;154.77;;;139.57;;
65936;SDS011;52707;52.086;5.418;2023-09-18T13:43:23;161.95;;;144.43;;
65936;SDS011;52707;52.086;5.418;2023-09-18T13:45:50;139.27;;;125.82;;
65936;SDS011;52707;52.086;5.418;2023-09-18T13:48:20;111.00;;;100.88;;
65936;SDS011;52707;52.086;5.418;2023-09-18T13:50:46;129.82;;;117.72;;
65936;SDS011;52707;52.086;5.418;2023-09-18T13:53:13;166.07;;;149.40;;
65936;SDS011;52707;52.086;5.418;2023-09-18T13:55:40;130.75;;;118.13;;
65936;SDS011;52707;52.086;5.418;2023-09-18T13:58:07;221.15;;;200.93;;
65936;SDS011;52707;52.086;5.418;2023-09-18T14:00:33;225.75;;;203.80;;
65936;SDS011;52707;52.086;5.418;2023-09-18T14:03:00;243.25;;;219.20;;
65936;SDS011;52707;52.086;5.418;2023-09-18T14:05:26;236.63;;;214.23;;
65936;SDS011;52707;52.086;5.418;2023-09-18T14:07:54;241.73;;;216.38;;
65936;SDS011;52707;52.086;5.418;2023-09-18T14:10:26;295.55;;;265.73;;
65936;SDS011;52707;52.086;5.418;2023-09-18T14:12:53;394.30;;;356.50;;
65936;SDS011;52707;52.086;5.418;2023-09-18T14:15:19;368.95;;;329.80;;
65936;SDS011;52707;52.086;5.418;2023-09-18T14:17:47;350.38;;;316.15;;
65936;SDS011;52707;52.086;5.418;2023-09-18T14:20:14;336.98;;;300.90;;
65936;SDS011;52707;52.086;5.418;2023-09-18T14:22:44;252.77;;;228.30;;
65936;SDS011;52707;52.086;5.418;2023-09-18T14:25:11;233.02;;;211.00;;
65936;SDS011;52707;52.086;5.418;2023-09-18T14:27:37;241.35;;;217.65;;
65936;SDS011;52707;52.086;5.418;2023-09-18T14:30:04;337.58;;;302.30;;
65936;SDS011;52707;52.086;5.418;2023-09-18T14:32:34;411.08;;;367.42;;
65936;SDS011;52707;52.086;5.418;2023-09-18T14:35:03;476.30;;;419.27;;
65936;SDS011;52707;52.086;5.418;2023-09-18T14:37:31;471.85;;;421.60;;
65936;SDS011;52707;52.086;5.418;2023-09-18T14:39:57;583.90;;;523.42;;
65936;SDS011;52707;52.086;5.418;2023-09-18T14:42:24;597.60;;;533.70;;
65936;SDS011;52707;52.086;5.418;2023-09-18T14:44:50;636.00;;;555.40;;
65936;SDS011;52707;52.086;5.418;2023-09-18T14:47:17;613.28;;;541.80;;